Time;durP1;ratioP1;P1;durP2;ratioP2;P2;SDS_P1;SDS_P2;PMS_P1;PMS_P2;Temp;Humidity;BMP_temperature;BMP_pressure;BME280_temperature;BME280_humidity;BME280_pressure;Samples;Min_cycle;Max_cycle;Signal;HPM_P1;HPM_P2
2022/01/28 00:04:59;;;;;;;7.22;6.00;;;5.80;99.90;;;;;;5019384;28;20348;-56
2022/01/28 00:07:24;;;;;;;6.73;5.60;;;5.50;99.90;;;;;;5019885;28;20287;-57
2022/01/28 00:09:50;;;;;;;5.57;5.03;;;5.30;99.90;;;;;;5022099;28;20782;-57
2022/01/28 00:12:15;;;;;;;7.30;5.70;;;5.60;99.90;;;;;;5018795;28;20222;-56
2022/01/28 00:38:59;;;;;;;5.55;5.05;;;5.80;99.90;;;;;;5017180;28;20200;-56
2022/01/28 00:41:24;;;;;;;5.60;4.50;;;5.20;99.90;;;;;;5015789;28;20181;-56
2022/01/28 00:43:50;;;;;;;6.07;4.57;;;5.60;99.90;;;;;;5017442;28;20245;-57
2022/01/28 00:46:15;;;;;;;5.40;4.90;;;5.60;99.90;;;;;;5015146;28;20195;-56
2022/01/28 00:48:41;;;;;;;5.33;4.33;;;5.60;99.90;;;;;;5011882;28;20275;-56
2022/01/28 00:51:06;;;;;;;5.07;4.57;;;5.80;99.90;;;;;;5018087;28;20184;-57
2022/01/28 00:53:32;;;;;;;7.20;5.30;;;5.10;99.90;;;;;;5016424;28;20286;-56
2022/01/28 00:55:58;;;;;;;6.40;4.97;;;5.60;99.90;;;;;;5018664;28;20183;-57
2022/01/28 00:58:24;;;;;;;5.77;4.40;;;5.80;99.90;;;;;;5012571;28;20217;-57
2022/01/28 01:00:50;;;;;;;7.07;5.20;;;5.60;99.90;;;;;;5018531;28;20269;-56
2022/01/28 01:03:16;;;;;;;6.05;4.75;;;5.50;99.90;;;;;;5015110;28;20217;-57
2022/01/28 01:05:42;;;;;;;6.20;4.60;;;5.80;99.90;;;;;;5017851;28;20191;-56
2022/01/28 01:08:07;;;;;;;4.70;4.20;;;5.80;99.90;;;;;;5019453;28;20467;-56
2022/01/28 01:10:33;;;;;;;5.53;4.40;;;5.40;99.90;;;;;;5015708;28;20447;-56
2022/01/28 01:12:59;;;;;;;6.00;5.00;;;5.80;99.90;;;;;;5023029;28;20192;-57
2022/01/28 01:15:30;;;;;;;6.23;4.87;;;5.80;99.90;;;;;;5014406;28;20551;-56
2022/01/28 01:18:10;;;;;;;6.72;5.63;;;5.60;99.90;;;;;;5014912;28;20214;-56
2022/01/28 01:23:15;;;;;;;4.80;4.25;;;5.70;99.90;;;;;;5018724;28;20237;-57
2022/01/28 01:25:47;;;;;;;7.63;5.63;;;5.40;99.90;;;;;;5015945;28;20648;-56
2022/01/28 01:28:14;;;;;;;5.60;4.40;;;4.80;99.90;;;;;;5012007;28;20688;-57
2022/01/28 01:30:42;;;;;;;5.78;4.68;;;5.40;99.90;;;;;;5016518;28;20207;-56
2022/01/28 01:33:09;;;;;;;5.78;4.70;;;5.30;99.90;;;;;;5018006;28;20186;-57
2022/01/28 01:35:35;;;;;;;6.32;4.38;;;4.90;99.90;;;;;;5017954;28;20185;-56
2022/01/28 01:38:02;;;;;;;4.50;4.10;;;5.20;99.90;;;;;;5020915;28;20194;-57
2022/01/28 01:40:36;;;;;;;4.80;4.40;;;5.20;99.90;;;;;;5014350;28;20203;-57
2022/01/28 01:43:14;;;;;;;6.45;4.57;;;4.60;99.90;;;;;;5022094;28;20184;-55
2022/01/28 01:53:34;;;;;;;6.15;5.05;;;4.40;99.90;;;;;;5018742;28;20618;-56
2022/01/28 01:56:00;;;;;;;5.17;4.27;;;4.70;99.90;;;;;;5020713;28;20206;-56
2022/01/28 01:58:30;;;;;;;6.80;5.07;;;4.90;99.90;;;;;;5017466;28;20546;-57
2022/01/28 02:00:58;;;;;;;5.32;4.50;;;4.80;99.90;;;;;;5014463;28;20599;-57
2022/01/28 02:03:24;;;;;;;7.20;5.70;;;4.30;99.90;;;;;;5013995;28;20220;-56
2022/01/28 02:05:49;;;;;;;5.80;4.90;;;4.40;99.90;;;;;;5027192;28;20201;-56
2022/01/28 02:08:15;;;;;;;6.30;4.80;;;4.70;99.90;;;;;;5024473;28;21294;-56
2022/01/28 02:10:40;;;;;;;5.50;4.43;;;5.20;99.90;;;;;;5016315;28;20186;-56
2022/01/28 02:13:06;;;;;;;4.57;4.10;;;4.80;99.90;;;;;;5014876;28;20190;-56
2022/01/28 02:15:32;;;;;;;6.23;4.80;;;4.10;99.90;;;;;;5021937;28;20202;-56
2022/01/28 02:17:59;;;;;;;6.30;4.97;;;4.80;99.90;;;;;;5019360;28;20211;-56
2022/01/28 02:20:31;;;;;;;5.38;4.70;;;4.80;99.90;;;;;;5022583;28;20187;-56
2022/01/28 02:22:57;;;;;;;6.85;5.03;;;4.80;99.90;;;;;;5017916;28;20185;-56
2022/01/28 02:25:24;;;;;;;7.40;5.00;;;4.70;99.90;;;;;;5021649;28;20183;-56
2022/01/28 02:27:50;;;;;;;6.43;5.10;;;4.60;99.90;;;;;;5021484;28;20229;-56
2022/01/28 02:30:16;;;;;;;6.60;5.27;;;4.60;99.90;;;;;;5024277;28;20197;-57
2022/01/28 02:32:43;;;;;;;5.30;4.80;;;4.60;99.90;;;;;;5024286;28;20543;-56
2022/01/28 02:35:09;;;;;;;6.10;4.90;;;4.70;99.90;;;;;;5020709;28;20207;-56
2022/01/28 02:37:35;;;;;;;5.53;4.50;;;4.60;99.90;;;;;;5019141;28;20514;-56
2022/01/28 02:40:00;;;;;;;6.53;4.13;;;4.70;99.90;;;;;;5023569;28;20223;-57
2022/01/28 02:42:43;;;;;;;6.80;4.33;;;4.30;99.90;;;;;;5016611;28;20195;-56
2022/01/28 02:45:09;;;;;;;5.95;5.00;;;4.50;99.90;;;;;;5017861;28;20207;-56
2022/01/28 02:47:38;;;;;;;5.40;4.90;;;4.90;99.90;;;;;;5017034;28;20679;-57
2022/01/28 02:50:07;;;;;;;5.18;4.65;;;5.00;99.90;;;;;;5024979;28;20270;-56
2022/01/28 02:52:43;;;;;;;5.60;4.63;;;4.60;99.90;;;;;;5024118;28;20185;-57
2022/01/28 02:55:11;;;;;;;5.22;4.72;;;4.50;99.90;;;;;;5021592;28;20203;-56
2022/01/28 02:57:41;;;;;;;8.52;4.45;;;4.60;99.90;;;;;;5024785;28;20245;-56
2022/01/28 03:00:07;;;;;;;5.40;4.63;;;4.60;99.90;;;;;;5018808;28;20200;-57
2022/01/28 03:02:32;;;;;;;5.05;4.13;;;4.50;99.90;;;;;;5015482;28;20200;-57
2022/01/28 03:05:30;;;;;;;6.37;4.63;;;4.50;99.90;;;;;;5023015;28;20227;-56
2022/01/28 03:07:52;;;;;;;4.55;4.07;;;4.10;99.90;;;;;;5022054;28;20206;-56
2022/01/28 03:10:29;;;;;;;6.47;4.83;;;3.90;99.90;;;;;;5019286;28;20190;-57
2022/01/28 03:13:32;;;;;;;5.60;5.03;;;4.40;99.90;;;;;;5014787;28;20721;-56
2022/01/28 03:15:52;;;;;;;6.68;4.78;;;4.70;99.90;;;;;;5018878;28;20226;-56
2022/01/28 03:18:22;;;;;;;5.00;4.10;;;4.40;99.90;;;;;;5017057;28;20274;-56
2022/01/28 03:23:17;;;;;;;5.22;4.43;;;3.80;99.90;;;;;;5021418;28;20222;-56
2022/01/28 03:25:44;;;;;;;6.20;4.13;;;4.30;99.90;;;;;;5020345;28;20192;-56
2022/01/28 03:28:11;;;;;;;4.90;4.40;;;4.50;99.90;;;;;;5013036;28;20595;-56
2022/01/28 03:30:37;;;;;;;5.57;4.82;;;4.00;99.90;;;;;;5021492;28;20183;-56
2022/01/28 03:33:03;;;;;;;5.00;4.23;;;4.40;99.90;;;;;;5034648;28;20710;-56
2022/01/28 03:35:31;;;;;;;4.63;4.10;;;4.60;99.90;;;;;;5018252;28;20197;-56
2022/01/28 03:38:01;;;;;;;5.40;4.10;;;4.50;99.90;;;;;;5015965;28;20190;-57
2022/01/28 03:40:29;;;;;;;5.80;4.65;;;4.50;99.90;;;;;;5018326;28;20224;-56
2022/01/28 03:42:54;;;;;;;5.53;4.25;;;3.90;99.90;;;;;;5023333;28;20188;-56
2022/01/28 03:45:20;;;;;;;6.60;4.67;;;4.60;99.90;;;;;;5011050;28;20720;-57
2022/01/28 03:47:45;;;;;;;4.80;4.03;;;4.80;99.90;;;;;;5016735;28;20234;-56
2022/01/28 03:50:11;;;;;;;5.33;4.10;;;4.70;99.90;;;;;;5014939;28;20652;-57
2022/01/28 03:52:37;;;;;;;4.63;3.97;;;5.30;99.90;;;;;;5020481;28;20282;-56
2022/01/28 03:55:03;;;;;;;5.40;3.93;;;4.60;99.90;;;;;;5023675;28;20701;-56
2022/01/28 03:57:29;;;;;;;5.97;4.75;;;4.70;99.90;;;;;;5017623;28;20218;-56
2022/01/28 03:59:54;;;;;;;4.57;4.17;;;4.40;99.90;;;;;;5022273;28;20196;-56
2022/01/28 04:02:24;;;;;;;6.00;4.20;;;4.90;99.90;;;;;;5014175;28;20194;-56
2022/01/28 04:12:52;;;;;;;4.45;4.05;;;5.00;99.90;;;;;;5017713;28;20191;-57
2022/01/28 04:15:34;;;;;;;5.90;4.87;;;5.60;99.90;;;;;;5020051;28;20215;-56
2022/01/28 04:17:59;;;;;;;6.10;4.90;;;4.70;99.90;;;;;;5014482;28;21101;-57
2022/01/28 04:20:25;;;;;;;5.30;4.60;;;5.10;99.90;;;;;;5019555;28;20197;-56
2022/01/28 04:22:51;;;;;;;5.53;4.43;;;5.10;99.90;;;;;;5014857;28;20536;-56
2022/01/28 04:25:16;;;;;;;6.70;4.80;;;5.00;99.90;;;;;;5021421;28;20241;-57
2022/01/28 04:27:42;;;;;;;6.10;4.43;;;5.20;99.90;;;;;;5018968;28;20253;-55
2022/01/28 04:30:08;;;;;;;4.70;4.20;;;4.90;99.90;;;;;;5014572;28;20175;-57
2022/01/28 04:32:35;;;;;;;5.40;4.35;;;5.00;99.90;;;;;;5015295;28;20710;-57
2022/01/28 04:35:00;;;;;;;5.25;4.65;;;5.00;99.90;;;;;;5022524;28;20190;-57
2022/01/28 04:37:43;;;;;;;5.50;5.00;;;5.10;99.90;;;;;;5016304;28;20256;-56
2022/01/28 04:43:29;;;;;;;5.15;4.65;;;4.90;99.90;;;;;;5016491;28;20263;-57
2022/01/28 04:45:40;;;;;;;6.55;5.55;;;4.70;99.90;;;;;;5021130;28;20632;-57
2022/01/28 04:51:01;;;;;;;5.95;4.80;;;4.80;99.90;;;;;;5015728;28;20228;-57
2022/01/28 04:53:53;;;;;;;5.88;5.28;;;4.70;99.90;;;;;;5018039;28;20583;-56
2022/01/28 04:56:39;;;;;;;6.55;5.40;;;4.60;99.90;;;;;;5022635;28;20658;-57
2022/01/28 05:04:36;;;;;;;5.17;4.47;;;4.10;99.90;;;;;;5019786;28;20235;-57
2022/01/28 05:10:21;;;;;;;6.38;5.68;;;5.00;99.90;;;;;;5017224;28;20237;-57
2022/01/28 05:26:23;;;;;;;6.20;5.60;;;4.20;99.90;;;;;;5015450;28;20183;-57
2022/01/28 05:28:48;;;;;;;8.38;5.75;;;4.70;99.90;;;;;;5016839;28;20211;-56
2022/01/28 05:31:15;;;;;;;13.35;5.60;;;3.90;99.90;;;;;;5014754;28;20266;-57
2022/01/28 05:33:40;;;;;;;8.45;5.05;;;4.90;99.90;;;;;;5015958;28;20217;-56
2022/01/28 05:36:06;;;;;;;8.00;5.23;;;4.60;99.90;;;;;;5018057;28;20187;-56
2022/01/28 05:38:32;;;;;;;7.43;5.80;;;4.60;99.90;;;;;;5016628;28;20864;-56
2022/01/28 05:40:57;;;;;;;7.40;4.80;;;4.20;99.90;;;;;;5018194;28;20269;-55
2022/01/28 05:43:23;;;;;;;9.03;6.00;;;4.10;99.90;;;;;;5012282;28;20348;-56
2022/01/28 05:45:48;;;;;;;7.90;6.00;;;4.30;99.90;;;;;;5019152;28;20258;-56
2022/01/28 05:48:16;;;;;;;7.50;5.40;;;4.30;99.90;;;;;;5009607;28;20206;-57
2022/01/28 05:50:42;;;;;;;6.97;5.57;;;4.20;99.90;;;;;;5017174;28;20188;-56
2022/01/28 05:53:07;;;;;;;7.72;5.80;;;4.40;99.90;;;;;;5011685;28;20184;-57
2022/01/28 05:55:34;;;;;;;7.67;5.57;;;4.40;99.90;;;;;;5020314;28;20179;-56
2022/01/28 05:58:00;;;;;;;6.45;5.75;;;4.70;99.90;;;;;;5016088;28;20664;-56
2022/01/28 06:00:26;;;;;;;6.83;5.97;;;4.30;99.90;;;;;;5013455;28;20199;-56
2022/01/28 06:02:51;;;;;;;7.90;6.47;;;3.80;99.90;;;;;;5008966;28;20617;-56
2022/01/28 06:05:18;;;;;;;6.33;5.60;;;4.20;99.90;;;;;;5017045;28;20226;-57
2022/01/28 06:07:43;;;;;;;7.65;6.35;;;3.80;99.90;;;;;;5013073;28;20366;-57
2022/01/28 06:10:10;;;;;;;8.33;6.33;;;4.00;99.90;;;;;;5013788;28;20258;-55
2022/01/28 06:12:44;;;;;;;11.18;6.90;;;3.90;99.90;;;;;;5014714;28;20650;-56
2022/01/28 06:15:11;;;;;;;8.77;5.75;;;3.90;99.90;;;;;;5016819;28;20643;-56
2022/01/28 06:17:37;;;;;;;11.32;7.05;;;3.50;99.90;;;;;;5012535;28;20624;-56
2022/01/28 06:20:06;;;;;;;7.43;6.15;;;4.30;99.90;;;;;;5013107;28;20213;-57
2022/01/28 06:22:32;;;;;;;10.40;6.50;;;4.00;99.90;;;;;;5016782;28;20244;-56
2022/01/28 06:24:58;;;;;;;9.80;5.90;;;3.60;99.90;;;;;;5020774;28;20423;-56
2022/01/28 06:27:24;;;;;;;6.93;6.03;;;4.20;99.90;;;;;;5016616;28;20697;-56
2022/01/28 06:29:50;;;;;;;8.07;6.10;;;3.90;99.90;;;;;;5018765;28;20183;-56
2022/01/28 06:32:16;;;;;;;8.30;6.18;;;4.20;99.90;;;;;;5008824;28;20946;-56
2022/01/28 06:34:43;;;;;;;9.82;6.93;;;3.90;99.90;;;;;;5019190;28;20216;-57
2022/01/28 06:37:09;;;;;;;6.85;5.00;;;4.00;99.90;;;;;;5017587;28;20182;-57
2022/01/28 06:39:35;;;;;;;13.02;7.28;;;4.00;99.90;;;;;;5020599;28;20192;-57
2022/01/28 06:42:01;;;;;;;10.90;6.67;;;4.00;99.90;;;;;;5023624;28;20194;-56
2022/01/28 06:44:26;;;;;;;10.50;7.10;;;4.00;99.90;;;;;;5016567;28;20632;-55
2022/01/28 06:46:52;;;;;;;9.53;6.07;;;4.50;99.90;;;;;;5018967;28;20207;-56
2022/01/28 06:49:18;;;;;;;8.03;6.30;;;4.10;99.90;;;;;;5019548;28;20198;-56
2022/01/28 06:51:44;;;;;;;8.02;6.18;;;4.80;99.90;;;;;;5022440;28;20818;-56
2022/01/28 06:54:10;;;;;;;8.23;6.38;;;4.40;99.90;;;;;;5017518;28;20736;-61
2022/01/28 06:56:36;;;;;;;8.63;6.47;;;4.20;99.90;;;;;;5016096;28;20266;-61
2022/01/28 06:59:02;;;;;;;6.73;5.70;;;4.30;99.90;;;;;;5019367;28;20202;-60
2022/01/28 07:01:27;;;;;;;9.95;6.20;;;4.00;99.90;;;;;;5020504;28;20195;-61
2022/01/28 07:03:53;;;;;;;7.00;6.30;;;4.20;99.90;;;;;;5019645;28;20218;-61
2022/01/28 07:06:19;;;;;;;10.60;7.10;;;4.00;99.90;;;;;;5018499;28;20241;-60
2022/01/28 07:08:45;;;;;;;12.82;7.75;;;4.50;99.90;;;;;;5018922;28;20249;-60
2022/01/28 07:11:11;;;;;;;7.83;6.77;;;3.90;99.90;;;;;;5013252;28;20661;-61
2022/01/28 07:13:36;;;;;;;8.90;6.13;;;4.30;99.90;;;;;;5024069;28;20207;-60
2022/01/28 07:16:02;;;;;;;11.00;7.00;;;4.00;99.90;;;;;;5017851;28;20298;-60
2022/01/28 07:18:28;;;;;;;13.60;7.50;;;4.00;99.90;;;;;;5010400;28;20248;-60
2022/01/28 07:20:54;;;;;;;8.98;6.30;;;3.90;99.90;;;;;;5011801;28;20569;-60
2022/01/28 07:23:20;;;;;;;9.60;6.40;;;3.80;99.90;;;;;;5015783;28;20207;-61
2022/01/28 07:25:45;;;;;;;8.70;7.10;;;3.90;99.90;;;;;;5024269;28;20433;-61
2022/01/28 07:28:11;;;;;;;13.90;7.20;;;4.00;99.90;;;;;;5015326;28;20335;-61
2022/01/28 07:30:37;;;;;;;10.33;6.23;;;3.60;99.90;;;;;;5013798;28;20183;-60
2022/01/28 07:33:06;;;;;;;7.67;6.77;;;4.30;99.90;;;;;;5010966;28;20186;-63
2022/01/28 07:35:31;;;;;;;9.60;6.45;;;3.80;99.90;;;;;;5019674;28;20955;-64
2022/01/28 07:37:57;;;;;;;11.63;7.63;;;4.00;99.90;;;;;;5017002;28;20194;-64
2022/01/28 07:40:22;;;;;;;10.10;7.17;;;3.90;99.90;;;;;;5016983;28;20217;-64
2022/01/28 07:42:48;;;;;;;10.30;6.67;;;4.10;99.90;;;;;;5012640;28;20839;-64
2022/01/28 07:45:14;;;;;;;12.87;6.37;;;4.00;99.90;;;;;;5012609;28;20306;-63
2022/01/28 07:47:41;;;;;;;7.35;6.47;;;4.00;99.90;;;;;;5010386;28;20314;-62
2022/01/28 07:50:08;;;;;;;9.32;6.78;;;4.10;99.90;;;;;;5015047;28;20193;-63
2022/01/28 07:52:35;;;;;;;8.35;6.63;;;4.20;99.90;;;;;;5014995;28;20268;-65
2022/01/28 07:55:01;;;;;;;6.40;5.40;;;4.10;99.90;;;;;;5013360;28;20207;-63
2022/01/28 07:57:26;;;;;;;7.67;5.70;;;4.60;99.90;;;;;;5008535;28;20961;-64
2022/01/28 07:59:52;;;;;;;8.93;6.30;;;4.70;99.90;;;;;;5026427;28;20601;-64
2022/01/28 08:02:18;;;;;;;9.20;6.00;;;4.50;99.90;;;;;;5011321;28;20195;-66
2022/01/28 08:04:43;;;;;;;8.47;6.03;;;4.70;99.90;;;;;;5011338;28;20227;-61
2022/01/28 08:07:09;;;;;;;7.33;5.20;;;4.70;99.90;;;;;;5017792;28;20342;-65
2022/01/28 08:09:35;;;;;;;10.13;6.20;;;4.50;99.90;;;;;;5018809;28;20616;-63
2022/01/28 08:12:00;;;;;;;8.03;5.47;;;4.40;99.90;;;;;;5012319;28;20185;-66
2022/01/28 08:14:26;;;;;;;8.47;6.30;;;4.80;99.90;;;;;;5011750;28;20586;-63
2022/01/28 08:16:52;;;;;;;11.82;6.30;;;5.20;99.90;;;;;;5018907;28;20247;-60
2022/01/28 08:19:18;;;;;;;10.30;5.80;;;5.00;99.90;;;;;;5012446;28;20705;-59
2022/01/28 08:21:43;;;;;;;8.13;5.87;;;5.00;99.90;;;;;;5011141;28;20448;-62
2022/01/28 08:24:09;;;;;;;6.97;6.00;;;5.00;99.90;;;;;;5013302;28;20562;-62
2022/01/28 08:26:34;;;;;;;9.13;5.70;;;5.10;99.90;;;;;;5012298;28;20190;-61
2022/01/28 08:29:00;;;;;;;8.97;4.80;;;5.60;99.90;;;;;;5012181;28;20209;-63
2022/01/28 08:31:25;;;;;;;10.37;5.53;;;5.30;99.90;;;;;;5010366;28;20234;-61
2022/01/28 08:33:51;;;;;;;10.50;5.60;;;5.60;99.90;;;;;;5012615;28;20194;-61
2022/01/28 08:36:19;;;;;;;6.70;5.50;;;5.50;99.90;;;;;;5012805;28;20195;-62
2022/01/28 08:38:46;;;;;;;6.72;5.35;;;5.50;99.90;;;;;;5015476;28;20196;-62
2022/01/28 08:41:12;;;;;;;7.28;5.55;;;5.70;99.90;;;;;;5012315;28;20192;-70
2022/01/28 08:43:39;;;;;;;8.35;5.30;;;5.90;99.90;;;;;;5014618;28;20234;-59
2022/01/28 08:46:05;;;;;;;6.88;4.65;;;5.20;99.90;;;;;;5016528;28;20193;-59
2022/01/28 08:48:31;;;;;;;5.45;4.65;;;5.80;99.90;;;;;;5014244;28;20256;-66
2022/01/28 08:50:58;;;;;;;7.40;4.93;;;5.80;99.90;;;;;;5023274;28;20184;-66
2022/01/28 08:53:23;;;;;;;7.07;4.30;;;5.90;99.90;;;;;;5017635;28;20445;-67
2022/01/28 08:55:49;;;;;;;6.97;5.23;;;5.90;99.90;;;;;;5014599;28;20185;-64
2022/01/28 08:58:15;;;;;;;5.17;4.40;;;5.70;99.90;;;;;;5016066;28;20452;-65
2022/01/28 09:00:43;;;;;;;5.03;4.50;;;6.30;99.90;;;;;;5014147;28;20599;-66
2022/01/28 09:03:09;;;;;;;6.50;4.50;;;6.00;99.90;;;;;;5017721;28;20457;-66
2022/01/28 09:05:35;;;;;;;4.83;4.33;;;6.50;99.90;;;;;;5012807;28;20207;-64
2022/01/28 09:08:06;;;;;;;7.18;4.75;;;6.30;99.90;;;;;;5011860;28;20242;-55
2022/01/28 09:10:32;;;;;;;6.40;4.43;;;5.90;99.90;;;;;;5011499;28;20199;-55
2022/01/28 09:15:33;;;;;;;6.70;5.15;;;6.10;99.90;;;;;;5016053;28;20183;-67
2022/01/28 09:17:59;;;;;;;7.10;5.40;;;6.10;99.90;;;;;;5020441;28;20186;-66
2022/01/28 09:20:25;;;;;;;4.65;4.15;;;6.30;99.90;;;;;;5018200;28;20216;-61
2022/01/28 09:22:51;;;;;;;5.70;4.07;;;6.40;99.90;;;;;;5018776;28;20654;-62
2022/01/28 09:25:17;;;;;;;6.28;4.38;;;6.30;99.90;;;;;;5021268;28;20301;-62
2022/01/28 09:27:43;;;;;;;12.93;5.33;;;5.80;99.90;;;;;;5017206;28;20296;-62
2022/01/28 09:30:09;;;;;;;5.20;4.10;;;6.40;99.90;;;;;;5013332;28;20490;-62
2022/01/28 09:32:35;;;;;;;6.93;4.70;;;6.60;99.90;;;;;;5015858;28;20667;-62
2022/01/28 09:35:02;;;;;;;5.03;4.00;;;6.40;99.90;;;;;;5018799;28;20272;-61
2022/01/28 09:37:28;;;;;;;5.43;4.25;;;6.90;99.90;;;;;;5019165;28;20194;-63
2022/01/28 09:39:53;;;;;;;4.82;3.25;;;7.80;99.90;;;;;;5012157;28;20218;-66
2022/01/28 09:42:21;;;;;;;4.70;3.10;;;8.00;99.80;;;;;;5019228;28;20272;-63
2022/01/28 09:44:47;;;;;;;4.25;3.85;;;8.50;98.80;;;;;;5013613;28;20221;-63
2022/01/28 09:47:13;;;;;;;4.27;3.47;;;8.80;97.90;;;;;;5022681;28;20211;-65
2022/01/28 09:49:42;;;;;;;4.38;3.35;;;8.90;96.70;;;;;;5024926;28;20538;-65
2022/01/28 09:52:11;;;;;;;4.82;3.15;;;9.30;96.50;;;;;;5010942;28;20183;-63
2022/01/28 09:54:37;;;;;;;4.90;3.22;;;9.30;95.70;;;;;;5014337;28;20785;-63
2022/01/28 09:57:04;;;;;;;5.35;2.97;;;9.50;95.20;;;;;;5024676;28;20180;-63
2022/01/28 09:59:30;;;;;;;6.97;4.38;;;9.20;94.50;;;;;;5010208;28;20706;-61
2022/01/28 10:01:56;;;;;;;4.43;2.73;;;9.30;95.00;;;;;;5014604;28;20180;-64
2022/01/28 10:04:23;;;;;;;3.67;3.33;;;9.40;94.30;;;;;;5015785;28;20485;-62
2022/01/28 10:06:49;;;;;;;7.07;3.95;;;9.40;94.60;;;;;;5015849;28;20544;-60
2022/01/28 10:09:18;;;;;;;3.22;2.58;;;9.40;94.40;;;;;;5020012;28;20186;-67
2022/01/28 10:11:48;;;;;;;6.68;2.92;;;9.20;93.70;;;;;;5025597;28;20198;-63
2022/01/28 10:14:17;;;;;;;4.53;2.55;;;8.90;93.80;;;;;;5018291;28;20202;-71
2022/01/28 10:16:42;;;;;;;4.47;2.38;;;9.00;94.10;;;;;;5013714;28;20222;-61
2022/01/28 10:19:11;;;;;;;6.20;2.90;;;8.90;94.30;;;;;;5016620;28;20655;-59
2022/01/28 10:21:45;;;;;;;9.43;2.60;;;8.80;93.90;;;;;;5022864;28;20459;-59
2022/01/28 10:24:16;;;;;;;7.70;3.05;;;8.60;94.00;;;;;;5014013;28;20211;-59
2022/01/28 10:26:55;;;;;;;3.80;2.33;;;8.70;94.10;;;;;;5025016;28;20731;-59
2022/01/28 10:29:31;;;;;;;5.40;2.55;;;8.40;94.30;;;;;;5014486;28;20215;-60
2022/01/28 10:32:03;;;;;;;4.15;2.20;;;8.20;94.30;;;;;;5014277;28;20190;-58
2022/01/28 10:34:35;;;;;;;6.32;2.17;;;8.10;94.40;;;;;;5018919;28;20252;-57
2022/01/28 10:37:10;;;;;;;3.15;2.33;;;8.30;94.30;;;;;;5021105;28;20535;-61
2022/01/28 10:39:42;;;;;;;4.35;2.20;;;8.30;94.90;;;;;;5015048;28;20222;-61
2022/01/28 10:42:09;;;;;;;8.10;2.10;;;8.40;94.20;;;;;;5016293;28;20779;-62
2022/01/28 10:44:54;;;;;;;3.67;2.03;;;8.50;94.10;;;;;;5023523;28;20238;-62
2022/01/28 10:47:39;;;;;;;3.97;2.05;;;9.40;93.70;;;;;;5016341;28;20215;-62
2022/01/28 10:50:20;;;;;;;7.00;4.00;;;10.00;91.30;;;;;;5016575;28;20527;-61
2022/01/28 10:52:48;;;;;;;5.32;2.45;;;10.00;91.70;;;;;;5019515;28;20197;-61
2022/01/28 10:55:19;;;;;;;2.95;2.00;;;10.30;91.40;;;;;;5021171;28;20661;-61
2022/01/28 10:57:56;;;;;;;3.45;2.13;;;10.10;90.70;;;;;;5021367;28;20618;-61
2022/01/28 11:00:25;;;;;;;7.50;2.67;;;10.00;90.70;;;;;;5016970;28;20706;-61
2022/01/28 11:02:53;;;;;;;7.20;2.55;;;10.00;90.60;;;;;;5015898;28;20192;-63
2022/01/28 11:05:19;;;;;;;5.03;1.60;;;10.00;90.80;;;;;;5018387;28;20281;-60
2022/01/28 11:07:44;;;;;;;7.57;2.10;;;9.70;91.40;;;;;;5019175;28;20259;-61
2022/01/28 11:10:10;;;;;;;2.87;2.57;;;9.30;91.00;;;;;;5021056;28;20182;-61
2022/01/28 11:12:37;;;;;;;6.37;3.60;;;9.40;91.70;;;;;;5013513;28;20214;-61
2022/01/28 11:15:02;;;;;;;6.72;3.40;;;9.30;91.60;;;;;;5021799;28;20203;-60
2022/01/28 11:17:28;;;;;;;9.80;1.90;;;9.40;91.70;;;;;;5013805;28;20674;-61
2022/01/28 11:19:55;;;;;;;3.88;2.35;;;9.10;91.80;;;;;;5015051;28;20579;-61
2022/01/28 11:22:36;;;;;;;9.98;2.83;;;9.00;91.40;;;;;;5015737;28;20550;-61
2022/01/28 11:25:30;;;;;;;11.43;2.90;;;8.90;91.50;;;;;;5013861;28;20198;-58
2022/01/28 11:27:56;;;;;;;10.60;2.30;;;9.10;91.40;;;;;;5016801;28;20296;-59
2022/01/28 11:30:28;;;;;;;4.90;2.40;;;8.70;91.90;;;;;;5021851;28;20629;-58
2022/01/28 11:33:00;;;;;;;6.13;2.90;;;9.10;92.50;;;;;;5014382;28;20190;-59
2022/01/28 11:35:38;;;;;;;3.00;2.10;;;9.10;92.40;;;;;;5018786;28;20187;-60
2022/01/28 11:38:26;;;;;;;1.80;1.45;;;9.10;91.30;;;;;;5021988;28;20222;-59
2022/01/28 11:40:55;;;;;;;5.28;2.60;;;9.10;91.40;;;;;;5014503;28;20202;-59
2022/01/28 11:43:23;;;;;;;5.13;2.17;;;9.10;91.10;;;;;;5012681;28;20234;-59
2022/01/28 11:46:05;;;;;;;5.68;2.35;;;9.10;91.30;;;;;;5020340;28;20223;-59
2022/01/28 11:48:56;;;;;;;4.90;2.92;;;9.00;91.50;;;;;;5024568;28;20249;-58
2022/01/28 11:51:44;;;;;;;7.72;2.65;;;9.10;91.50;;;;;;5020507;28;20181;-61
2022/01/28 11:54:12;;;;;;;3.40;1.60;;;8.90;91.80;;;;;;5022273;28;20217;-60
2022/01/28 11:57:01;;;;;;;5.70;1.92;;;9.10;90.80;;;;;;5017497;28;20184;-59
2022/01/28 11:59:28;;;;;;;3.03;1.75;;;9.00;90.50;;;;;;5012013;28;20278;-60
2022/01/28 12:01:54;;;;;;;10.55;2.80;;;9.00;90.60;;;;;;5016938;28;20187;-60
2022/01/28 12:04:26;;;;;;;4.97;2.00;;;8.90;90.80;;;;;;5010916;28;20241;-59
2022/01/28 12:07:04;;;;;;;4.13;2.15;;;8.60;91.10;;;;;;5020673;28;20186;-60
2022/01/28 12:09:33;;;;;;;3.55;1.92;;;8.40;91.80;;;;;;5016530;28;20288;-60
2022/01/28 12:11:59;;;;;;;2.13;1.70;;;8.50;92.50;;;;;;5014938;28;20181;-59
2022/01/28 12:14:52;;;;;;;2.45;1.52;;;8.30;92.30;;;;;;5010770;28;20222;-60
2022/01/28 12:17:33;;;;;;;7.30;2.67;;;8.20;91.80;;;;;;5016906;28;20195;-59
2022/01/28 12:20:24;;;;;;;2.95;2.10;;;8.10;91.80;;;;;;5020951;28;20659;-60
2022/01/28 12:23:26;;;;;;;3.13;2.20;;;8.30;91.90;;;;;;5020894;28;20257;-59
2022/01/28 12:25:56;;;;;;;4.53;2.90;;;8.40;92.10;;;;;;5022308;28;20205;-59
2022/01/28 12:28:22;;;;;;;7.10;3.17;;;8.40;91.80;;;;;;5021557;28;20207;-59
2022/01/28 12:30:47;;;;;;;5.20;2.70;;;8.30;91.70;;;;;;5021834;28;20190;-59
2022/01/28 12:33:14;;;;;;;2.40;1.97;;;8.30;91.80;;;;;;5019708;28;20237;-59
2022/01/28 12:35:42;;;;;;;4.45;2.47;;;8.40;92.00;;;;;;5014340;28;20181;-59
2022/01/28 12:38:10;;;;;;;3.10;2.30;;;8.30;91.80;;;;;;5014490;28;20182;-59
2022/01/28 12:40:39;;;;;;;3.20;2.20;;;8.20;92.30;;;;;;5020501;28;20194;-59
2022/01/28 12:43:06;;;;;;;5.20;3.10;;;8.40;92.20;;;;;;5015572;28;20190;-65
2022/01/28 12:45:32;;;;;;;6.63;3.60;;;8.60;91.50;;;;;;5009955;28;20274;-62
2022/01/28 12:47:58;;;;;;;6.88;2.55;;;8.70;91.90;;;;;;5009548;28;20238;-62
2022/01/28 12:50:25;;;;;;;5.47;2.75;;;8.40;91.70;;;;;;5011162;28;20698;-62
2022/01/28 12:52:51;;;;;;;5.57;3.10;;;8.40;91.50;;;;;;5009992;28;20657;-63
2022/01/28 12:55:17;;;;;;;7.15;3.00;;;8.70;91.90;;;;;;5018551;28;20213;-63
2022/01/28 12:57:45;;;;;;;3.55;2.75;;;8.40;91.90;;;;;;5012375;28;20183;-63
2022/01/28 13:00:12;;;;;;;4.03;2.53;;;8.20;92.30;;;;;;5012154;28;20274;-63
2022/01/28 13:02:40;;;;;;;5.60;3.40;;;8.40;93.10;;;;;;5014381;28;20187;-62
2022/01/28 13:10:25;;;;;;;6.15;3.33;;;8.80;93.40;;;;;;5021153;28;20829;-65
2022/01/28 13:13:00;;;;;;;5.05;3.95;;;8.90;93.30;;;;;;5014975;28;20189;-59
2022/01/28 13:15:26;;;;;;;3.22;2.88;;;8.60;93.10;;;;;;5012931;28;20217;-59
2022/01/28 13:17:58;;;;;;;3.20;2.93;;;8.30;92.80;;;;;;5017479;28;20218;-58
2022/01/28 13:20:31;;;;;;;3.40;2.97;;;8.60;93.60;;;;;;5017889;28;20179;-59
2022/01/28 13:22:59;;;;;;;4.85;3.45;;;8.10;93.40;;;;;;5019608;28;20179;-58
2022/01/28 13:25:27;;;;;;;8.60;5.05;;;8.40;93.70;;;;;;5016160;28;20281;-59
2022/01/28 13:27:58;;;;;;;5.50;3.72;;;8.50;93.90;;;;;;5012804;28;20620;-60
2022/01/28 13:30:31;;;;;;;8.23;3.65;;;8.10;94.30;;;;;;5021989;28;20176;-58
2022/01/28 13:33:03;;;;;;;8.38;4.75;;;7.90;94.80;;;;;;5009791;28;20720;-58
2022/01/28 13:35:29;;;;;;;8.80;4.80;;;7.30;95.50;;;;;;5018471;28;20186;-58
2022/01/28 13:37:57;;;;;;;6.47;5.10;;;7.90;96.20;;;;;;5014126;28;20194;-58
2022/01/28 13:40:29;;;;;;;9.68;3.80;;;7.70;95.80;;;;;;5021317;28;20447;-58
2022/01/28 13:43:16;;;;;;;6.88;4.60;;;7.80;95.50;;;;;;5017615;28;20672;-58
2022/01/28 13:45:49;;;;;;;5.15;4.15;;;7.60;95.60;;;;;;5024280;28;20205;-58
2022/01/28 13:48:31;;;;;;;6.45;4.47;;;7.10;96.50;;;;;;5009053;28;20203;-57
2022/01/28 13:51:07;;;;;;;11.80;4.25;;;7.40;96.70;;;;;;5016817;28;20524;-59
2022/01/28 13:54:15;;;;;;;7.47;4.00;;;7.70;96.40;;;;;;5018489;28;20201;-60
2022/01/28 13:56:42;;;;;;;4.88;4.30;;;7.50;96.30;;;;;;5012811;28;20197;-59
2022/01/28 13:59:13;;;;;;;8.82;4.50;;;7.70;96.60;;;;;;5017625;28;20171;-59
2022/01/28 14:01:44;;;;;;;11.20;6.38;;;7.70;96.90;;;;;;5018084;28;20179;-59
2022/01/28 14:04:32;;;;;;;5.35;4.20;;;7.60;96.60;;;;;;5025125;28;20288;-59
2022/01/28 14:07:17;;;;;;;7.28;5.15;;;7.60;95.80;;;;;;5015234;28;20182;-57
2022/01/28 14:09:57;;;;;;;5.72;4.80;;;7.60;96.30;;;;;;5016980;28;20656;-59
2022/01/28 14:12:36;;;;;;;7.50;4.50;;;7.70;96.40;;;;;;5011119;28;20217;-59
2022/01/28 14:15:12;;;;;;;6.28;4.00;;;7.80;96.40;;;;;;5014656;28;20225;-57
2022/01/28 14:17:38;;;;;;;6.05;4.88;;;7.80;96.00;;;;;;5011488;28;20185;-57
2022/01/28 14:20:05;;;;;;;6.97;4.70;;;7.70;96.20;;;;;;5023799;28;20206;-58
2022/01/28 14:22:31;;;;;;;10.60;5.57;;;7.60;95.80;;;;;;5020749;28;20656;-58
2022/01/28 14:24:57;;;;;;;5.50;4.27;;;7.50;95.80;;;;;;5020413;28;20241;-59
2022/01/28 14:27:58;;;;;;;7.25;5.43;;;7.40;96.10;;;;;;5009646;28;20578;-59
2022/01/28 14:32:42;;;;;;;6.63;4.95;;;7.60;96.30;;;;;;5007361;28;20179;-60